アピア の空港の天気 - METARとTAF

ファレオロ国際空港(サモア) ( NSFA / APW ) - サモア アピア
飛行場実況気象(Metar)
観測時間10/23 02:00 WSDT (10/22 12:00 UTC)
風向・風速東 3m/s
視程10km以上
天気現象
少しの雲 雲底高度 670m
全天の8割程度の雲 雲底高度 4570m
気温27℃
湿度84%
気圧1012hPa
METARNSFA 221200Z 10005KT 9999 FEW022 BKN150 27/24 Q1012
過去の天気等 Google飛行場航空写真 Wunderground天気予報

過去48時間のMETAR

飛行場予報(TAF)
発表時間: 10/23 01:17 WSDT (10/22 11:17 UTC)
予報対象時間: 23日2時 WSDT ~ 24日2時 WSDT
風向・風速南東 4m/s
視程10km以上
天気現象弱いしゅう雨
全天の4割程度の雲 雲底高度 610m
全天の8割程度の雲 雲底高度 3050m
23日2時 WSDT ~ 23日8時 WSDT に 確率 40% で一時的に
視程5000m
天気現象雷雨
全天の8割程度の雲 雲底高度 460m
少しの積乱雲 雲底高度 550m
23日8時 WSDT ~ 23日14時 WSDT に 確率 30% で一時的に
視程5000m
天気現象しゅう雨
全天の8割程度の雲 雲底高度 460m
23日17時 WSDT ~ 23日20時 WSDT に 確率 30% で一時的に
視程5000m
天気現象雷雨
全天の8割程度の雲 雲底高度 460m
少しの積乱雲 雲底高度 550m
TAF NSFA 221117Z 2212/2312 13007KT 9999 -SHRA SCT020 BKN100
PROB40 TEMPO 2212/2218 5000 TSRA BKN015 FEW018CB
PROB30 TEMPO 2218/2224 5000 SHRA BKN015
PROB30 TEMPO 2303/2306 5000 TSRA BKN015 FEW018CB